Time;durP1;ratioP1;P1;durP2;ratioP2;P2;SDS_P1;SDS_P2;PMS_P1;PMS_P2;Temp;Humidity;BMP_temperature;BMP_pressure;BME280_temperature;BME280_humidity;BME280_pressure;Samples;Min_cycle;Max_cycle;Signal;HPM_P1;HPM_P2
2024/04/19 00:01:47;;;;;;;0.13;0.10;;;18.30;67.30;;;;;;5410432;26;20014;-87
2024/04/19 00:04:13;;;;;;;0.05;0.05;;;18.30;67.20;;;;;;5445105;26;20464;-89
2024/04/19 00:06:38;;;;;;;0.35;0.30;;;18.30;67.40;;;;;;5441684;26;20003;-88
2024/04/19 00:09:04;;;;;;;0.13;0.13;;;18.30;67.30;;;;;;5438095;26;20075;-86
2024/04/19 00:11:29;;;;;;;0.20;0.20;;;18.40;67.40;;;;;;5465648;26;20547;-87
2024/04/19 00:13:55;;;;;;;0.32;0.20;;;18.30;67.40;;;;;;5414735;26;20007;-87
2024/04/19 00:16:22;;;;;;;0.28;0.20;;;18.30;67.40;;;;;;5444347;26;20087;-89
2024/04/19 00:18:48;;;;;;;0.10;0.10;;;18.30;67.50;;;;;;5442115;26;19998;-89
2024/04/19 00:21:13;;;;;;;0.28;0.20;;;18.30;67.50;;;;;;5417633;26;20529;-89
2024/04/19 00:23:39;;;;;;;0.35;0.20;;;18.30;67.40;;;;;;5441424;26;20044;-89
2024/04/19 00:26:04;;;;;;;1.27;0.30;;;18.30;67.50;;;;;;5442140;26;20528;-88
2024/04/19 00:28:30;;;;;;;0.20;0.17;;;18.30;67.40;;;;;;5442731;26;20075;-88
2024/04/19 00:30:56;;;;;;;0.20;0.20;;;18.30;67.40;;;;;;5408519;26;20436;-88
2024/04/19 00:33:22;;;;;;;0.20;0.20;;;18.20;67.30;;;;;;5437415;26;20007;-89
2024/04/19 00:35:47;;;;;;;0.30;0.30;;;18.20;67.60;;;;;;5440735;26;19998;-88
2024/04/19 00:38:13;;;;;;;0.20;0.20;;;18.20;67.60;;;;;;5439139;26;20003;-89
2024/04/19 00:40:38;;;;;;;0.30;0.20;;;18.20;67.60;;;;;;5499878;26;20401;-88
2024/04/19 00:43:04;;;;;;;0.32;0.25;;;18.30;67.50;;;;;;5438348;26;20018;-88
2024/04/19 00:45:36;;;;;;;0.40;0.20;;;18.30;67.70;;;;;;5413684;26;20007;-88
2024/04/19 00:48:23;;;;;;;0.20;0.20;;;18.20;67.40;;;;;;5443026;26;20018;-89
2024/04/19 00:50:59;;;;;;;0.50;0.20;;;18.30;67.50;;;;;;5442568;26;19998;-88
2024/04/19 00:53:27;;;;;;;0.50;0.20;;;18.30;67.40;;;;;;5469883;26;20018;-87
2024/04/19 00:55:58;;;;;;;0.10;0.10;;;18.20;67.40;;;;;;5437150;26;19999;-86
2024/04/19 00:58:27;;;;;;;0.10;0.10;;;18.20;67.30;;;;;;5438849;26;20075;-87
2024/04/19 01:00:53;;;;;;;0.28;0.20;;;18.20;67.50;;;;;;5437150;26;20007;-87
2024/04/19 01:03:18;;;;;;;0.30;0.30;;;18.20;67.40;;;;;;5405902;26;20044;-87
2024/04/19 01:05:44;;;;;;;0.17;0.10;;;18.20;67.40;;;;;;5408766;26;20357;-88
2024/04/19 01:08:10;;;;;;;0.10;0.10;;;18.20;67.30;;;;;;5409841;26;20017;-87
2024/04/19 01:10:36;;;;;;;0.65;0.20;;;18.20;67.30;;;;;;5442530;26;20015;-88
2024/04/19 01:13:02;;;;;;;0.22;0.20;;;18.20;67.30;;;;;;5404866;26;20000;-88
2024/04/19 01:15:27;;;;;;;0.15;0.15;;;18.20;67.40;;;;;;5439357;26;20006;-88
2024/04/19 01:17:53;;;;;;;0.20;0.20;;;18.20;67.30;;;;;;5434274;26;20002;-88
2024/04/19 01:20:18;;;;;;;0.10;0.10;;;18.20;68.20;;;;;;5440922;26;20007;-88
2024/04/19 01:22:44;;;;;;;0.13;0.13;;;18.20;67.50;;;;;;5441289;26;20014;-88
2024/04/19 01:25:13;;;;;;;0.50;0.20;;;18.20;67.50;;;;;;5435088;26;20010;-89
2024/04/19 01:27:39;;;;;;;0.35;0.15;;;18.10;67.60;;;;;;5411115;26;20007;-87
2024/04/19 01:30:06;;;;;;;0.10;0.10;;;18.20;67.50;;;;;;5383470;26;20122;-88
2024/04/19 01:32:31;;;;;;;0.30;0.30;;;18.10;67.60;;;;;;5408082;26;20051;-87
2024/04/19 01:34:57;;;;;;;0.17;0.17;;;18.20;67.50;;;;;;5437222;26;19999;-89
2024/04/19 01:37:22;;;;;;;0.20;0.20;;;18.20;67.40;;;;;;5443176;26;20052;-89
2024/04/19 01:39:48;;;;;;;0.30;0.30;;;18.20;67.30;;;;;;5412735;26;20014;-88
2024/04/19 01:42:13;;;;;;;0.17;0.15;;;18.20;67.30;;;;;;5441699;26;20517;-87
2024/04/19 01:44:39;;;;;;;0.20;0.20;;;18.20;67.50;;;;;;5440327;26;20002;-87
2024/04/19 01:47:05;;;;;;;0.13;0.13;;;18.10;67.60;;;;;;5411257;26;20010;-87
2024/04/19 01:49:30;;;;;;;0.40;0.40;;;18.10;67.90;;;;;;5440408;26;20003;-86
2024/04/19 01:51:57;;;;;;;0.20;0.20;;;18.00;68.00;;;;;;5440763;26;19995;-86
2024/04/19 01:54:23;;;;;;;0.20;0.20;;;18.00;68.10;;;;;;5408496;26;20013;-87
2024/04/19 01:56:48;;;;;;;0.15;0.15;;;18.00;68.00;;;;;;5435522;26;19999;-86
2024/04/19 01:59:14;;;;;;;0.35;0.30;;;18.00;67.90;;;;;;5439708;26;20004;-88
2024/04/19 02:01:40;;;;;;;0.28;0.20;;;18.10;67.90;;;;;;5492326;26;20448;-87
2024/04/19 02:04:05;;;;;;;0.30;0.30;;;18.10;67.90;;;;;;5466098;26;19999;-88
2024/04/19 02:06:31;;;;;;;0.32;0.22;;;18.10;67.70;;;;;;5439114;26;20002;-87
2024/04/19 02:08:56;;;;;;;0.20;0.20;;;18.10;67.60;;;;;;5440943;26;20052;-87
2024/04/19 02:11:22;;;;;;;0.10;0.10;;;18.10;67.60;;;;;;5410166;26;20021;-87
2024/04/19 02:13:47;;;;;;;0.20;0.20;;;18.10;67.70;;;;;;5411074;26;20015;-88
2024/04/19 02:16:13;;;;;;;0.20;0.10;;;18.10;67.80;;;;;;5415854;26;20026;-87
2024/04/19 02:18:39;;;;;;;0.20;0.20;;;18.10;68.00;;;;;;5445205;26;19999;-87
2024/04/19 02:21:04;;;;;;;0.20;0.20;;;18.10;67.80;;;;;;5437465;26;19998;-86
2024/04/19 02:23:36;;;;;;;0.13;0.13;;;18.10;67.80;;;;;;5441169;26;20015;-88
2024/04/19 02:26:02;;;;;;;0.20;0.20;;;18.10;67.80;;;;;;5436222;26;20015;-88
2024/04/19 02:31:12;;;;;;;0.20;0.20;;;18.10;67.70;;;;;;5441018;26;20013;-88
2024/04/19 02:33:38;;;;;;;0.20;0.20;;;18.10;67.70;;;;;;5437316;26;20006;-88
2024/04/19 02:36:04;;;;;;;0.10;0.10;;;18.00;67.70;;;;;;5444513;26;20362;-88
2024/04/19 02:38:29;;;;;;;0.20;0.20;;;18.00;67.80;;;;;;5463814;26;20017;-88
2024/04/19 02:40:55;;;;;;;0.20;0.20;;;18.00;68.10;;;;;;5443382;26;20072;-88
2024/04/19 02:43:20;;;;;;;0.20;0.20;;;18.00;67.80;;;;;;5444945;26;20011;-88
2024/04/19 02:45:46;;;;;;;0.17;0.13;;;18.00;67.80;;;;;;5439058;26;19999;-88
2024/04/19 02:48:12;;;;;;;0.20;0.20;;;18.00;67.80;;;;;;5412246;26;20004;-88
2024/04/19 02:50:37;;;;;;;0.30;0.30;;;18.00;67.80;;;;;;5412981;26;20013;-87
2024/04/19 02:53:03;;;;;;;0.32;0.30;;;18.00;67.90;;;;;;5412983;26;20015;-87
2024/04/19 02:55:29;;;;;;;0.20;0.20;;;18.00;67.80;;;;;;5438207;26;20011;-88
2024/04/19 02:57:54;;;;;;;1.50;0.20;;;18.00;67.70;;;;;;5434478;26;20014;-89
2024/04/19 03:00:20;;;;;;;0.13;0.13;;;18.00;67.70;;;;;;5438509;26;20437;-88
2024/04/19 03:02:45;;;;;;;0.10;0.10;;;18.00;67.60;;;;;;5474523;26;20022;-89
2024/04/19 03:05:11;;;;;;;0.30;0.30;;;18.00;67.80;;;;;;5444960;26;20006;-88
2024/04/19 03:07:37;;;;;;;0.20;0.20;;;17.90;67.90;;;;;;5506205;26;20003;-87
2024/04/19 03:10:02;;;;;;;0.17;0.17;;;17.90;68.20;;;;;;5412383;26;20030;-88
2024/04/19 03:12:28;;;;;;;0.20;0.17;;;17.90;68.20;;;;;;5444662;26;20011;-88
2024/04/19 03:14:53;;;;;;;0.17;0.17;;;17.90;68.20;;;;;;5437533;26;19995;-88
2024/04/19 03:17:19;;;;;;;0.30;0.30;;;17.90;68.10;;;;;;5427223;26;20052;-88
2024/04/19 03:19:45;;;;;;;0.25;0.20;;;17.90;68.20;;;;;;5435673;26;20376;-87
2024/04/19 03:22:10;;;;;;;0.10;0.10;;;17.90;68.00;;;;;;5445249;26;20018;-86
2024/04/19 03:24:36;;;;;;;0.20;0.20;;;17.90;67.90;;;;;;5413334;26;20010;-85
2024/04/19 03:27:02;;;;;;;0.17;0.17;;;17.90;67.70;;;;;;5439983;26;20464;-89
2024/04/19 03:29:28;;;;;;;0.20;0.20;;;18.00;67.70;;;;;;5470302;26;20024;-88
2024/04/19 03:31:53;;;;;;;0.20;0.20;;;18.00;67.70;;;;;;5441016;26;20543;-89
2024/04/19 03:34:19;;;;;;;0.30;0.20;;;18.00;67.60;;;;;;5446322;26;19995;-89
2024/04/19 03:36:47;;;;;;;0.20;0.20;;;18.00;67.50;;;;;;5437390;26;20015;-89
2024/04/19 03:39:13;;;;;;;0.15;0.15;;;18.00;67.60;;;;;;5438071;26;20461;-89
2024/04/19 03:41:40;;;;;;;0.35;0.30;;;18.00;67.70;;;;;;5438080;26;20003;-87
2024/04/19 03:46:50;;;;;;;0.25;0.10;;;17.90;67.90;;;;;;5445547;26;20013;-87
2024/04/19 03:49:15;;;;;;;0.20;0.20;;;17.90;67.80;;;;;;5412345;26;20011;-88
2024/04/19 03:51:41;;;;;;;0.40;0.28;;;17.90;67.90;;;;;;5471794;26;20003;-87
2024/04/19 03:54:06;;;;;;;0.17;0.17;;;17.90;68.00;;;;;;5442317;26;20449;-88
2024/04/19 03:56:32;;;;;;;0.20;0.20;;;17.90;68.70;;;;;;5415001;26;20007;-88
2024/04/19 03:58:57;;;;;;;0.20;0.20;;;17.90;67.90;;;;;;5413735;26;19999;-88
2024/04/19 04:01:23;;;;;;;0.22;0.22;;;17.90;68.00;;;;;;5440290;26;20089;-88
2024/04/19 04:03:54;;;;;;;0.20;0.20;;;17.90;68.20;;;;;;5434854;26;20018;-89
2024/04/19 04:06:20;;;;;;;0.28;0.28;;;17.80;68.10;;;;;;5441628;26;20021;-87
2024/04/19 04:08:46;;;;;;;0.47;0.30;;;17.80;68.00;;;;;;5440245;26;20002;-87
2024/04/19 04:11:12;;;;;;;0.30;0.30;;;17.80;68.20;;;;;;5410562;26;20075;-88
2024/04/19 04:13:40;;;;;;;0.85;0.38;;;17.80;68.20;;;;;;5410819;26;20020;-88
2024/04/19 04:16:06;;;;;;;0.20;0.20;;;17.80;68.10;;;;;;5469925;26;19995;-87
2024/04/19 04:18:32;;;;;;;0.30;0.10;;;17.80;68.10;;;;;;5439636;26;20339;-87
2024/04/19 04:20:58;;;;;;;1.02;0.55;;;17.80;68.00;;;;;;5383409;26;19999;-89
2024/04/19 04:23:24;;;;;;;0.20;0.20;;;17.90;67.90;;;;;;5470159;26;20026;-89
2024/04/19 04:25:49;;;;;;;0.20;0.20;;;17.90;68.00;;;;;;5437834;26;20018;-88
2024/04/19 04:28:15;;;;;;;0.20;0.20;;;17.80;68.20;;;;;;5442948;26;20002;-88
2024/04/19 04:30:40;;;;;;;0.30;0.20;;;17.80;68.30;;;;;;5438497;26;20048;-88
2024/04/19 04:33:06;;;;;;;0.30;0.10;;;17.80;68.30;;;;;;5438456;26;19999;-89
2024/04/19 04:35:32;;;;;;;0.15;0.10;;;17.70;68.30;;;;;;5440605;26;20083;-88
2024/04/19 04:37:57;;;;;;;0.17;0.17;;;17.70;68.40;;;;;;5440460;26;20005;-88
2024/04/19 04:40:23;;;;;;;0.20;0.20;;;17.70;68.40;;;;;;5442856;26;19995;-89
2024/04/19 04:42:49;;;;;;;0.10;0.10;;;17.70;68.40;;;;;;5412732;26;20067;-87
2024/04/19 04:45:15;;;;;;;0.50;0.17;;;17.70;68.20;;;;;;5441060;26;20011;-87
2024/04/19 04:47:40;;;;;;;0.20;0.20;;;17.70;68.40;;;;;;5441120;26;20450;-87
2024/04/19 04:50:06;;;;;;;0.52;0.50;;;17.70;68.10;;;;;;5467902;26;20014;-88
2024/04/19 04:52:31;;;;;;;0.20;0.20;;;17.70;68.30;;;;;;5467166;26;20038;-86
2024/04/19 04:54:57;;;;;;;0.93;0.15;;;17.70;68.20;;;;;;5031206;26;9999834;-84
2024/04/19 04:57:23;;;;;;;0.17;0.17;;;17.80;68.60;;;;;;5407451;26;20007;-89
2024/04/19 04:59:48;;;;;;;0.30;0.20;;;17.80;68.30;;;;;;5427694;26;20117;-85
2024/04/19 05:02:14;;;;;;;0.20;0.20;;;17.90;68.20;;;;;;5399938;26;20003;-88
2024/04/19 05:04:42;;;;;;;0.10;0.10;;;17.80;68.20;;;;;;5405883;26;20910;-87
2024/04/19 05:07:08;;;;;;;0.20;0.20;;;17.80;68.30;;;;;;5402179;26;20013;-88
2024/04/19 05:09:33;;;;;;;0.43;0.30;;;17.90;68.40;;;;;;5407936;26;20007;-89
2024/04/19 05:11:59;;;;;;;0.20;0.20;;;17.80;68.60;;;;;;5431773;26;20010;-89
2024/04/19 05:14:24;;;;;;;0.20;0.17;;;17.80;68.80;;;;;;5461622;26;20029;-88
2024/04/19 05:16:50;;;;;;;0.10;0.10;;;17.80;68.60;;;;;;5429932;26;20019;-79
2024/04/19 05:19:15;;;;;;;0.20;0.20;;;17.80;68.60;;;;;;5435250;26;19999;-88
2024/04/19 05:21:41;;;;;;;0.10;0.10;;;17.90;68.60;;;;;;5432906;26;20003;-89
2024/04/19 05:24:06;;;;;;;0.13;0.13;;;17.90;68.50;;;;;;5433522;26;20005;-88
2024/04/19 05:26:32;;;;;;;0.28;0.20;;;17.90;68.40;;;;;;5459462;26;20014;-86
2024/04/19 05:28:58;;;;;;;0.30;0.30;;;17.90;68.30;;;;;;5404345;26;20017;-88
2024/04/19 05:31:24;;;;;;;0.60;0.60;;;17.90;68.50;;;;;;5401801;26;20014;-86
2024/04/19 05:33:51;;;;;;;0.55;0.55;;;17.90;68.40;;;;;;5427178;26;20019;-86
2024/04/19 05:36:16;;;;;;;0.68;0.38;;;18.00;68.40;;;;;;5433775;26;20043;-86
2024/04/19 05:38:42;;;;;;;0.30;0.30;;;18.00;68.20;;;;;;5399541;26;20715;-85
2024/04/19 05:41:08;;;;;;;0.20;0.20;;;18.00;68.40;;;;;;5403564;26;20015;-85
2024/04/19 05:43:33;;;;;;;0.50;0.10;;;18.00;68.40;;;;;;5433862;26;20340;-87
2024/04/19 05:45:59;;;;;;;0.20;0.20;;;17.90;68.50;;;;;;5436012;26;20482;-87
2024/04/19 05:48:24;;;;;;;0.30;0.22;;;17.90;68.40;;;;;;5435054;26;20437;-87
2024/04/19 05:50:50;;;;;;;0.32;0.32;;;17.90;68.40;;;;;;5403589;26;20004;-88
2024/04/19 05:53:15;;;;;;;0.35;0.20;;;17.90;68.40;;;;;;5405086;26;20471;-86
2024/04/19 05:55:43;;;;;;;0.50;0.50;;;17.90;68.20;;;;;;5435127;26;19999;-86
2024/04/19 05:58:09;;;;;;;0.43;0.43;;;17.90;68.00;;;;;;5463026;26;20012;-88
2024/04/19 06:00:35;;;;;;;0.50;0.50;;;17.90;68.00;;;;;;5433942;26;20007;-86
2024/04/19 06:03:00;;;;;;;0.40;0.40;;;18.00;68.00;;;;;;5374734;26;20022;-87
2024/04/19 06:05:26;;;;;;;0.20;0.20;;;18.00;68.00;;;;;;5434582;26;20026;-88
2024/04/19 06:07:51;;;;;;;0.52;0.30;;;17.90;67.80;;;;;;5370401;26;20007;-87
2024/04/19 06:10:17;;;;;;;0.70;0.40;;;17.80;68.70;;;;;;5464471;26;20421;-87
2024/04/19 06:12:43;;;;;;;2.08;0.30;;;18.00;68.10;;;;;;5405956;26;20320;-86
2024/04/19 06:15:08;;;;;;;0.20;0.20;;;17.90;68.30;;;;;;5434019;26;20140;-88
2024/04/19 06:17:34;;;;;;;0.30;0.30;;;17.90;68.60;;;;;;5431263;26;20018;-87
2024/04/19 06:19:59;;;;;;;1.00;0.30;;;17.80;68.60;;;;;;5400498;26;20003;-88
2024/04/19 06:22:25;;;;;;;0.35;0.30;;;17.90;69.70;;;;;;5437404;26;20329;-87
2024/04/19 06:24:51;;;;;;;0.40;0.38;;;17.90;68.30;;;;;;5401972;26;20007;-86
2024/04/19 06:27:16;;;;;;;0.25;0.17;;;17.90;68.10;;;;;;5460481;26;20010;-86
2024/04/19 06:29:42;;;;;;;0.90;0.30;;;17.90;68.20;;;;;;5432010;26;20440;-89
2024/04/19 06:32:09;;;;;;;1.17;0.30;;;17.90;67.90;;;;;;5430358;26;20022;-89
2024/04/19 06:34:35;;;;;;;0.40;0.20;;;17.90;68.20;;;;;;5461003;26;20485;-88
2024/04/19 06:37:02;;;;;;;0.10;0.10;;;17.90;68.60;;;;;;5428987;26;20511;-87
2024/04/19 06:39:28;;;;;;;0.50;0.20;;;17.90;69.00;;;;;;5470710;26;20014;-88
2024/04/19 06:41:54;;;;;;;0.90;0.40;;;17.90;69.10;;;;;;5439157;26;20003;-87
2024/04/19 06:44:20;;;;;;;0.30;0.22;;;17.90;69.10;;;;;;5436655;26;20322;-88
2024/04/19 06:46:46;;;;;;;0.20;0.20;;;17.90;69.10;;;;;;5414874;26;20348;-88
2024/04/19 06:49:11;;;;;;;0.95;0.30;;;17.90;69.10;;;;;;5440121;26;19995;-88
2024/04/19 06:51:37;;;;;;;0.25;0.25;;;17.80;69.10;;;;;;5439980;26;20082;-87
2024/04/19 06:54:03;;;;;;;0.40;0.40;;;17.80;69.20;;;;;;5440222;26;20007;-89
2024/04/19 06:56:28;;;;;;;0.35;0.30;;;17.80;69.10;;;;;;5439189;26;20003;-88
2024/04/19 06:58:54;;;;;;;1.65;0.20;;;17.80;69.00;;;;;;5444496;26;20013;-88
2024/04/19 07:01:21;;;;;;;0.77;0.30;;;17.80;68.80;;;;;;5444656;26;20002;-88
2024/04/19 07:03:47;;;;;;;0.75;0.30;;;17.90;68.70;;;;;;5413742;26;19994;-87
2024/04/19 07:06:14;;;;;;;0.43;0.20;;;17.90;68.70;;;;;;5383105;26;20030;-89
2024/04/19 07:08:40;;;;;;;0.40;0.30;;;17.80;69.50;;;;;;5441732;26;20021;-88
2024/04/19 07:11:05;;;;;;;0.32;0.20;;;17.80;68.70;;;;;;5434913;26;20007;-88
2024/04/19 07:13:32;;;;;;;0.52;0.30;;;17.80;68.70;;;;;;5388026;26;19999;-88
2024/04/19 07:15:57;;;;;;;0.50;0.30;;;17.80;68.60;;;;;;5436939;26;20457;-88
2024/04/19 07:18:24;;;;;;;1.33;0.30;;;17.80;68.50;;;;;;5437769;26;20014;-88
2024/04/19 07:20:52;;;;;;;0.13;0.13;;;17.80;68.40;;;;;;5415416;26;20444;-87
2024/04/19 07:23:19;;;;;;;0.40;0.20;;;17.80;68.50;;;;;;5440468;26;20029;-87
2024/04/19 07:25:44;;;;;;;0.60;0.20;;;17.80;68.50;;;;;;5385797;26;20007;-88
2024/04/19 07:28:10;;;;;;;0.22;0.22;;;17.80;68.50;;;;;;5440277;26;20474;-88
2024/04/19 07:30:35;;;;;;;0.10;0.10;;;17.80;68.60;;;;;;5439906;26;20079;-88
2024/04/19 07:33:01;;;;;;;0.17;0.17;;;17.80;68.60;;;;;;5438325;26;20441;-88
2024/04/19 07:35:27;;;;;;;0.10;0.10;;;17.80;68.60;;;;;;5411350;26;20014;-89
2024/04/19 07:37:53;;;;;;;0.40;0.30;;;17.80;68.60;;;;;;5440652;26;20006;-86
2024/04/19 07:40:18;;;;;;;0.22;0.20;;;17.80;68.70;;;;;;5386174;26;20011;-88
2024/04/19 07:42:45;;;;;;;0.10;0.10;;;17.80;68.70;;;;;;5438418;26;20007;-88
2024/04/19 07:45:11;;;;;;;0.22;0.22;;;17.80;68.70;;;;;;5408741;26;19999;-88
2024/04/19 07:47:37;;;;;;;0.40;0.20;;;17.80;68.70;;;;;;5438022;26;20007;-88
2024/04/19 07:50:03;;;;;;;0.40;0.15;;;17.80;68.70;;;;;;5436553;26;20015;-88
2024/04/19 07:52:29;;;;;;;0.73;0.20;;;17.80;68.60;;;;;;5441701;26;20039;-88
2024/04/19 07:54:54;;;;;;;0.30;0.30;;;17.80;68.70;;;;;;5414017;26;20014;-87
2024/04/19 07:57:20;;;;;;;0.20;0.20;;;17.80;68.80;;;;;;5412793;26;20025;-88
2024/04/19 07:59:46;;;;;;;0.40;0.40;;;17.80;68.80;;;;;;5413933;26;20053;-88
2024/04/19 08:02:11;;;;;;;0.32;0.30;;;17.80;68.80;;;;;;5440091;26;20332;-88
2024/04/19 08:04:37;;;;;;;0.20;0.20;;;17.80;68.80;;;;;;5443606;26;19998;-88
2024/04/19 08:07:03;;;;;;;0.30;0.30;;;17.80;69.00;;;;;;5413936;26;20010;-87
2024/04/19 08:09:28;;;;;;;0.82;0.20;;;17.80;69.10;;;;;;5409749;26;20332;-88
2024/04/19 08:11:55;;;;;;;0.52;0.40;;;17.80;69.20;;;;;;5413695;26;20084;-88
2024/04/19 08:14:20;;;;;;;1.05;0.43;;;17.80;69.00;;;;;;5439943;26;20148;-88
2024/04/19 08:16:46;;;;;;;0.13;0.13;;;17.90;68.90;;;;;;5385867;26;20003;-88
2024/04/19 08:19:11;;;;;;;0.30;0.30;;;17.90;68.60;;;;;;5439207;26;20533;-88
2024/04/19 08:21:37;;;;;;;0.20;0.20;;;17.90;68.70;;;;;;5432585;26;20014;-88
2024/04/19 08:24:03;;;;;;;0.15;0.10;;;17.90;68.70;;;;;;5439496;26;20002;-88
2024/04/19 08:26:28;;;;;;;0.13;0.10;;;17.90;68.80;;;;;;5439410;26;20445;-88
2024/04/19 08:28:54;;;;;;;0.22;0.22;;;18.00;69.00;;;;;;5441060;26;20488;-87
2024/04/19 08:31:19;;;;;;;0.28;0.28;;;18.00;69.20;;;;;;5413229;26;20078;-87
2024/04/19 08:33:45;;;;;;;0.82;0.13;;;18.00;69.10;;;;;;5499791;26;20006;-87
2024/04/19 08:36:11;;;;;;;0.20;0.20;;;18.00;69.00;;;;;;5439500;26;20025;-88
2024/04/19 08:38:36;;;;;;;0.20;0.20;;;18.10;69.20;;;;;;5440999;26;20386;-88
2024/04/19 08:41:03;;;;;;;0.50;0.30;;;18.10;69.20;;;;;;5439887;26;20030;-88
2024/04/19 08:43:35;;;;;;;0.20;0.20;;;18.10;69.30;;;;;;5471640;26;20022;-88
2024/04/19 08:46:02;;;;;;;0.28;0.28;;;18.10;69.50;;;;;;5440859;26;20007;-87
2024/04/19 08:48:27;;;;;;;0.28;0.17;;;18.10;69.40;;;;;;5416735;26;20013;-87
2024/04/19 08:50:56;;;;;;;0.28;0.20;;;18.10;69.30;;;;;;5387929;26;20007;-86
2024/04/19 08:53:22;;;;;;;0.10;0.10;;;18.10;69.30;;;;;;5418514;26;20019;-88
2024/04/19 08:55:47;;;;;;;0.20;0.20;;;18.20;70.20;;;;;;5419849;26;20460;-88
2024/04/19 08:58:13;;;;;;;0.10;0.10;;;18.20;69.30;;;;;;5419492;26;19998;-88
2024/04/19 09:00:38;;;;;;;0.15;0.10;;;18.20;69.20;;;;;;5420709;26;20011;-88
2024/04/19 09:03:05;;;;;;;0.10;0.10;;;18.20;69.20;;;;;;5439868;26;20007;-87
2024/04/19 09:05:30;;;;;;;0.43;0.10;;;18.20;69.20;;;;;;5417008;26;19994;-88
2024/04/19 09:07:56;;;;;;;0.10;0.10;;;18.30;69.00;;;;;;5416306;26;20081;-88
2024/04/19 09:10:21;;;;;;;0.20;0.10;;;18.30;69.00;;;;;;5417707;26;19994;-89
2024/04/19 09:12:47;;;;;;;0.35;0.10;;;18.30;69.00;;;;;;5447577;26;20007;-89
2024/04/19 09:15:13;;;;;;;0.10;0.10;;;18.30;69.00;;;;;;5410288;26;20081;-88
2024/04/19 09:17:38;;;;;;;0.10;0.10;;;18.30;68.90;;;;;;5441382;26;20021;-89
2024/04/19 09:20:05;;;;;;;0.10;0.10;;;18.30;68.90;;;;;;5412289;26;20392;-89
2024/04/19 09:22:31;;;;;;;0.20;0.20;;;18.30;68.80;;;;;;5416077;26;19999;-88
2024/04/19 09:24:57;;;;;;;0.13;0.10;;;18.30;68.60;;;;;;5387786;26;20110;-89
2024/04/19 09:27:23;;;;;;;0.13;0.13;;;18.40;68.80;;;;;;5444171;26;20040;-89
2024/04/19 09:29:49;;;;;;;0.30;0.30;;;18.40;68.70;;;;;;5412265;26;20007;-89
2024/04/19 09:32:21;;;;;;;0.17;0.10;;;18.30;68.80;;;;;;5383137;26;20003;-89
2024/04/19 09:34:48;;;;;;;0.20;0.20;;;18.40;69.60;;;;;;5387224;26;20003;-89
2024/04/19 09:37:13;;;;;;;0.20;0.20;;;18.30;68.70;;;;;;5415506;26;20003;-89
2024/04/19 09:39:39;;;;;;;0.60;0.10;;;18.40;68.70;;;;;;5413548;26;19999;-89
2024/04/19 09:42:08;;;;;;;0.35;0.10;;;18.30;68.70;;;;;;5442127;26;20014;-89
2024/04/19 09:44:33;;;;;;;0.13;0.08;;;18.30;68.60;;;;;;5411384;26;20000;-89
2024/04/19 09:47:03;;;;;;;0.20;0.10;;;18.30;68.50;;;;;;5442981;26;20441;-89
2024/04/19 09:49:30;;;;;;;0.10;0.10;;;18.40;68.60;;;;;;5505504;26;20035;-89
2024/04/19 09:51:55;;;;;;;0.38;0.20;;;18.40;68.40;;;;;;5442858;26;20467;-85
2024/04/19 09:54:22;;;;;;;0.10;0.10;;;18.30;68.50;;;;;;5382153;26;20385;-90
2024/04/19 09:56:58;;;;;;;1.08;0.20;;;18.30;68.30;;;;;;5472218;26;20025;-89
2024/04/19 09:59:24;;;;;;;0.30;0.10;;;18.30;68.50;;;;;;5411154;26;20011;-88
2024/04/19 10:01:51;;;;;;;0.10;0.10;;;18.40;68.70;;;;;;5442203;26;20006;-89
2024/04/19 10:04:16;;;;;;;0.10;0.10;;;18.30;68.30;;;;;;5416225;26;20022;-89
2024/04/19 10:06:42;;;;;;;0.10;0.10;;;18.30;68.30;;;;;;5412909;26;20014;-89
2024/04/19 10:09:14;;;;;;;0.10;0.10;;;18.30;68.40;;;;;;5411229;26;20104;-89
2024/04/19 10:11:42;;;;;;;0.10;0.10;;;18.30;68.30;;;;;;5442888;26;20003;-89
2024/04/19 10:14:08;;;;;;;0.50;0.20;;;18.30;68.30;;;;;;5409938;26;20549;-89
2024/04/19 10:16:33;;;;;;;0.13;0.10;;;18.40;68.50;;;;;;5408510;26;20012;-89
2024/04/19 10:19:00;;;;;;;0.30;0.10;;;18.30;68.30;;;;;;5411352;26;20008;-89
2024/04/19 10:21:26;;;;;;;0.20;0.10;;;18.40;68.60;;;;;;5440485;26;19999;-90
2024/04/19 10:23:51;;;;;;;0.10;0.00;;;18.40;68.40;;;;;;5441282;26;20352;-89
2024/04/19 10:26:23;;;;;;;0.50;0.15;;;18.30;68.40;;;;;;5444112;26;20021;-89
2024/04/19 10:28:50;;;;;;;0.10;0.10;;;18.40;68.40;;;;;;5441194;26;20017;-89
2024/04/19 10:31:21;;;;;;;0.03;0.03;;;18.30;68.30;;;;;;5415874;26;20796;-90
2024/04/19 10:33:47;;;;;;;0.20;0.10;;;18.30;68.10;;;;;;5437382;26;20039;-88
2024/04/19 10:36:12;;;;;;;0.10;0.10;;;18.40;68.30;;;;;;5389633;26;20007;-89
2024/04/19 10:38:38;;;;;;;0.20;0.20;;;18.30;68.20;;;;;;5443119;26;20079;-89
2024/04/19 10:41:07;;;;;;;0.40;0.15;;;18.30;68.30;;;;;;5412792;26;20055;-89
2024/04/19 10:43:40;;;;;;;0.22;0.10;;;18.30;68.20;;;;;;5498339;26;20038;-89
2024/04/19 10:46:06;;;;;;;0.10;0.10;;;18.40;68.30;;;;;;5385580;26;20377;-89
2024/04/19 10:48:32;;;;;;;0.13;0.10;;;18.40;68.20;;;;;;5493469;25;20647;-89
2024/04/19 10:50:59;;;;;;;0.20;0.20;;;18.30;68.20;;;;;;5380412;26;20004;-89
2024/04/19 10:53:25;;;;;;;0.10;0.10;;;18.30;68.00;;;;;;5436165;26;20507;-89
2024/04/19 10:55:50;;;;;;;0.10;0.10;;;18.30;68.20;;;;;;5443675;26;20014;-89
2024/04/19 10:58:16;;;;;;;0.00;0.00;;;18.40;68.10;;;;;;5441415;26;20011;-89
2024/04/19 11:00:45;;;;;;;0.15;0.10;;;18.30;68.60;;;;;;5438254;26;20038;-89
2024/04/19 11:03:11;;;;;;;0.65;0.10;;;18.40;68.10;;;;;;5410510;26;20457;-89
2024/04/19 11:05:38;;;;;;;0.28;0.10;;;18.40;68.20;;;;;;5499004;26;20026;-89
2024/04/19 11:08:05;;;;;;;0.20;0.17;;;18.30;68.10;;;;;;5442571;26;20008;-89
2024/04/19 11:10:31;;;;;;;0.10;0.10;;;18.30;68.20;;;;;;5416789;26;20007;-90
2024/04/19 11:12:57;;;;;;;0.10;0.10;;;18.30;68.20;;;;;;5416620;26;20017;-90
2024/04/19 11:15:23;;;;;;;0.10;0.10;;;18.30;68.10;;;;;;5409351;26;20003;-89
2024/04/19 11:17:48;;;;;;;0.20;0.10;;;18.30;68.10;;;;;;5411962;26;20014;-89
2024/04/19 11:20:14;;;;;;;0.47;0.10;;;18.30;67.90;;;;;;5413138;26;20018;-89
2024/04/19 11:22:40;;;;;;;0.10;0.10;;;18.30;68.00;;;;;;5422211;26;20104;-89
2024/04/19 11:25:07;;;;;;;0.10;0.10;;;18.30;68.90;;;;;;5445235;26;20015;-88
2024/04/19 11:27:32;;;;;;;0.13;0.05;;;18.30;68.00;;;;;;5387101;26;19995;-89
2024/04/19 11:29:58;;;;;;;0.10;0.10;;;18.30;68.10;;;;;;5415115;26;20430;-89
2024/04/19 11:32:24;;;;;;;0.10;0.10;;;18.30;68.10;;;;;;5443955;26;20014;-89
2024/04/19 11:34:49;;;;;;;0.52;0.35;;;18.30;68.10;;;;;;5444129;26;20006;-89
2024/04/19 11:37:15;;;;;;;0.10;0.00;;;18.30;68.10;;;;;;5442578;26;20007;-89
2024/04/19 11:39:43;;;;;;;0.30;0.20;;;18.30;68.00;;;;;;5415337;26;20447;-89
2024/04/19 11:42:09;;;;;;;0.10;0.10;;;18.30;68.00;;;;;;5438970;26;20348;-89
2024/04/19 11:44:40;;;;;;;0.10;0.10;;;18.30;68.00;;;;;;5473929;26;20009;-90
2024/04/19 11:47:05;;;;;;;0.05;0.05;;;18.30;68.10;;;;;;5411997;26;20022;-88
2024/04/19 11:49:31;;;;;;;0.17;0.10;;;18.30;67.90;;;;;;5447041;26;20452;-89
2024/04/19 11:51:57;;;;;;;0.25;0.10;;;18.30;67.80;;;;;;5412446;26;20476;-89
2024/04/19 11:54:26;;;;;;;0.17;0.10;;;18.30;67.90;;;;;;5413364;26;20081;-89
2024/04/19 11:56:52;;;;;;;0.10;0.10;;;18.30;67.90;;;;;;5410020;26;20076;-89
2024/04/19 11:59:20;;;;;;;0.10;0.10;;;18.30;68.90;;;;;;5383552;26;20019;-89
2024/04/19 12:01:46;;;;;;;0.15;0.15;;;18.30;68.00;;;;;;5499566;26;20321;-89
2024/04/19 12:04:12;;;;;;;0.10;0.10;;;18.30;68.00;;;;;;5445436;26;20461;-88
2024/04/19 12:06:38;;;;;;;0.40;0.20;;;18.30;68.10;;;;;;5385173;26;19999;-89
2024/04/19 12:09:03;;;;;;;0.10;0.10;;;18.30;68.00;;;;;;5385061;26;20008;-88
2024/04/19 12:11:29;;;;;;;0.10;0.10;;;18.30;68.20;;;;;;5412502;26;20071;-88
2024/04/19 12:13:55;;;;;;;0.10;0.10;;;18.30;68.00;;;;;;5411087;26;19999;-89
2024/04/19 12:16:22;;;;;;;0.10;0.10;;;18.30;68.00;;;;;;5498768;26;20369;-89
2024/04/19 12:18:47;;;;;;;0.20;0.05;;;18.30;68.00;;;;;;5413447;26;19996;-89
2024/04/19 12:21:13;;;;;;;0.20;0.20;;;18.30;68.10;;;;;;5442888;26;20017;-88
2024/04/19 12:23:40;;;;;;;0.17;0.10;;;18.30;68.00;;;;;;5409694;26;20000;-89
2024/04/19 12:26:06;;;;;;;1.17;0.20;;;18.30;67.80;;;;;;5411399;26;20058;-88
2024/04/19 12:28:31;;;;;;;0.20;0.10;;;18.30;67.90;;;;;;5443119;26;20003;-88
2024/04/19 12:30:57;;;;;;;0.10;0.10;;;18.30;68.10;;;;;;5414788;26;20013;-89
2024/04/19 12:33:23;;;;;;;0.20;0.10;;;18.30;67.90;;;;;;5409962;26;20021;-89
2024/04/19 12:35:49;;;;;;;0.25;0.20;;;18.30;67.90;;;;;;5413921;26;20014;-89
2024/04/19 12:38:15;;;;;;;0.00;0.00;;;18.30;67.90;;;;;;5439994;26;20007;-88
2024/04/19 12:40:41;;;;;;;0.10;0.10;;;18.30;67.90;;;;;;5446317;26;20009;-89
2024/04/19 12:43:06;;;;;;;0.10;0.10;;;18.30;67.90;;;;;;5406022;26;20018;-89
2024/04/19 12:45:32;;;;;;;0.20;0.10;;;18.30;68.70;;;;;;5434179;26;19999;-88
2024/04/19 12:48:07;;;;;;;0.10;0.10;;;18.30;67.90;;;;;;5438458;26;20003;-89